Time;durP1;ratioP1;P1;durP2;ratioP2;P2;SDS_P1;SDS_P2;PMS_P1;PMS_P2;Temp;Humidity;BMP_temperature;BMP_pressure;BME280_temperature;BME280_humidity;BME280_pressure;Samples;Min_cycle;Max_cycle;Signal;HPM_P1;HPM_P2
2023/10/29 00:01:33;;;;;;;;;;;;;;;20.70;65.48;96855.41;609839;232;64573;-67
2023/10/29 00:04:01;;;;;;;;;;;;;;;20.69;65.40;96864.51;610938;232;69233;-67
2023/10/29 00:06:28;;;;;;;;;;;;;;;20.70;65.42;96866.09;610923;232;66667;-67
2023/10/29 00:08:56;;;;;;;;;;;;;;;20.70;65.47;96866.89;610934;232;62466;-67
2023/10/29 00:11:23;;;;;;;;;;;;;;;20.69;65.49;96865.30;610924;232;69027;-67
2023/10/29 00:13:51;;;;;;;;;;;;;;;20.70;65.59;96866.09;610996;232;68534;-67
2023/10/29 00:16:18;;;;;;;;;;;;;;;20.69;65.53;96869.84;610923;232;62482;-67
2023/10/29 00:18:46;;;;;;;;;;;;;;;20.70;65.65;96871.44;610948;232;68879;-67
2023/10/29 00:21:13;;;;;;;;;;;;;;;20.70;65.67;96871.44;610918;232;66111;-67
2023/10/29 00:23:41;;;;;;;;;;;;;;;20.69;65.67;96867.17;610951;232;63370;-67
2023/10/29 00:26:09;;;;;;;;;;;;;;;20.69;65.76;96875.19;610973;232;68614;-67
2023/10/29 00:28:37;;;;;;;;;;;;;;;20.69;65.57;96877.86;606051;232;69994;-67
2023/10/29 00:31:05;;;;;;;;;;;;;;;20.69;65.63;96867.17;610928;232;64622;-67
2023/10/29 00:33:32;;;;;;;;;;;;;;;20.69;65.58;96869.84;610921;232;68769;-67
2023/10/29 00:36:00;;;;;;;;;;;;;;;20.69;65.73;96867.97;610916;232;68609;-68
2023/10/29 00:38:28;;;;;;;;;;;;;;;20.68;65.68;96865.56;610989;232;62370;-68
2023/10/29 00:40:55;;;;;;;;;;;;;;;20.68;65.67;96868.23;611008;232;69690;-68
2023/10/29 00:43:23;;;;;;;;;;;;;;;20.68;65.53;96858.38;610918;232;68595;-68
2023/10/29 00:45:53;;;;;;;;;;;;;;;20.69;65.62;96864.51;610995;232;63527;-68
2023/10/29 00:48:22;;;;;;;;;;;;;;;20.69;65.61;96864.51;610983;232;68769;-68
2023/10/29 00:50:50;;;;;;;;;;;;;;;20.68;65.58;96862.89;610997;232;65914;-68
2023/10/29 00:53:18;;;;;;;;;;;;;;;20.68;65.59;96862.89;611027;232;65237;-69
2023/10/29 00:55:47;;;;;;;;;;;;;;;20.68;65.62;96874.39;610971;232;66453;-68
2023/10/29 00:58:16;;;;;;;;;;;;;;;20.67;65.62;96867.44;610921;232;68979;-69
2023/10/29 01:00:45;;;;;;;;;;;;;;;20.68;65.50;96862.89;610891;232;65737;-68
2023/10/29 01:03:12;;;;;;;;;;;;;;;20.68;65.41;96855.70;610999;232;68648;-68
2023/10/29 01:05:40;;;;;;;;;;;;;;;20.67;65.35;96853.30;610981;232;69494;-68
2023/10/29 01:08:08;;;;;;;;;;;;;;;20.68;65.31;96862.89;610997;232;62376;-68
2023/10/29 01:10:35;;;;;;;;;;;;;;;20.68;65.43;96862.89;610958;232;66429;-68
2023/10/29 01:13:03;;;;;;;;;;;;;;;20.68;65.48;96854.88;610937;232;69377;-68
2023/10/29 01:15:32;;;;;;;;;;;;;;;20.67;65.40;96855.96;610999;232;62470;-69
2023/10/29 01:18:00;;;;;;;;;;;;;;;20.68;65.33;96857.55;611001;232;68316;-68
2023/10/29 01:20:28;;;;;;;;;;;;;;;20.67;65.34;96864.77;610996;232;67357;-68
2023/10/29 01:22:55;;;;;;;;;;;;;;;20.67;65.31;96858.63;610921;232;64949;-68
2023/10/29 01:25:23;;;;;;;;;;;;;;;20.66;65.33;96860.51;610949;232;68873;-68
2023/10/29 01:27:51;;;;;;;;;;;;;;;20.67;65.29;96845.28;610977;232;66386;-69
2023/10/29 01:30:19;;;;;;;;;;;;;;;20.67;65.31;96855.96;610999;232;63619;-68
2023/10/29 01:32:46;;;;;;;;;;;;;;;20.67;65.19;96855.96;610995;232;69581;-68
2023/10/29 01:35:14;;;;;;;;;;;;;;;20.67;65.34;96862.09;610943;232;69613;-68
2023/10/29 01:37:41;;;;;;;;;;;;;;;20.66;65.27;96857.84;610866;232;65525;-68
2023/10/29 01:40:09;;;;;;;;;;;;;;;20.67;65.23;96858.63;610972;232;68831;-68
2023/10/29 01:42:37;;;;;;;;;;;;;;;20.66;65.24;96860.51;611009;232;66669;-68
2023/10/29 01:45:04;;;;;;;;;;;;;;;20.66;65.19;96860.51;610961;232;62369;-68
2023/10/29 01:47:32;;;;;;;;;;;;;;;20.66;65.26;96857.05;610924;232;68671;-68
2023/10/29 01:49:59;;;;;;;;;;;;;;;20.66;65.46;96867.73;610978;232;68736;-68
2023/10/29 01:52:27;;;;;;;;;;;;;;;20.67;65.29;96874.66;610951;232;64641;-68
2023/10/29 01:54:54;;;;;;;;;;;;;;;20.66;65.21;96870.39;610999;232;66245;-68
2023/10/29 01:57:22;;;;;;;;;;;;;;;20.66;65.15;96873.06;610970;232;68817;-68
2023/10/29 01:59:50;;;;;;;;;;;;;;;20.66;65.20;96870.39;610927;232;62341;-68
2023/10/29 02:02:17;;;;;;;;;;;;;;;20.66;65.07;96873.06;609547;232;68826;-68
2023/10/29 02:04:45;;;;;;;;;;;;;;;20.65;65.02;96874.91;609028;233;68316;-68
2023/10/29 02:07:13;;;;;;;;;;;;;;;20.66;65.18;96870.39;609058;233;64914;-68
2023/10/29 02:09:41;;;;;;;;;;;;;;;20.65;65.33;96882.92;609098;233;68571;-68
2023/10/29 02:12:08;;;;;;;;;;;;;;;20.65;65.22;96880.25;609020;233;66668;-68
2023/10/29 02:14:39;;;;;;;;;;;;;;;20.66;65.33;96881.08;609029;233;65324;-68
2023/10/29 02:17:06;;;;;;;;;;;;;;;20.65;64.98;96880.25;608989;232;74493;-68
2023/10/29 02:19:33;;;;;;;;;;;;;;;20.65;64.98;96887.47;608990;233;68519;-68
2023/10/29 02:22:01;;;;;;;;;;;;;;;20.64;65.29;96886.67;609064;233;64641;-69
2023/10/29 02:24:28;;;;;;;;;;;;;;;20.65;65.25;96890.14;609032;233;66406;-69
2023/10/29 02:26:56;;;;;;;;;;;;;;;20.65;65.13;96896.27;609003;233;66324;-69
2023/10/29 02:29:23;;;;;;;;;;;;;;;20.64;65.12;96897.36;609049;233;64941;-68
2023/10/29 02:31:51;;;;;;;;;;;;;;;20.65;65.01;96892.81;609005;233;65857;-68
2023/10/29 02:34:19;;;;;;;;;;;;;;;20.65;65.08;96898.15;609084;233;68650;-68
2023/10/29 02:36:47;;;;;;;;;;;;;;;20.65;65.17;96903.48;609000;233;63452;-68
2023/10/29 02:39:14;;;;;;;;;;;;;;;20.64;65.12;96907.23;608996;233;69131;-68
2023/10/29 02:41:42;;;;;;;;;;;;;;;20.64;65.19;96915.25;609020;233;68575;-68
2023/10/29 02:44:10;;;;;;;;;;;;;;;20.64;65.57;96913.38;609029;233;65461;-68
2023/10/29 02:46:37;;;;;;;;;;;;;;;20.65;65.51;96911.50;609049;233;67158;-68
2023/10/29 02:49:05;;;;;;;;;;;;;;;20.64;65.28;96907.23;609018;230;68834;-68
2023/10/29 02:51:32;;;;;;;;;;;;;;;20.64;65.08;96902.70;609058;233;64716;-68
2023/10/29 02:54:00;;;;;;;;;;;;;;;20.63;64.80;96906.45;609088;233;66100;-68
2023/10/29 02:56:28;;;;;;;;;;;;;;;20.64;64.61;96912.58;609053;233;68450;-68
2023/10/29 02:58:56;;;;;;;;;;;;;;;20.64;65.10;96915.25;609059;233;62528;-68
2023/10/29 03:01:23;;;;;;;;;;;;;;;20.64;65.23;96917.92;608986;232;68555;-68
2023/10/29 03:03:51;;;;;;;;;;;;;;;20.63;65.23;96925.14;609032;233;65951;-68
2023/10/29 03:06:19;;;;;;;;;;;;;;;20.63;65.13;96922.47;609060;233;64615;-68
2023/10/29 03:08:47;;;;;;;;;;;;;;;20.63;64.72;96919.00;609025;233;68452;-68
2023/10/29 03:11:15;;;;;;;;;;;;;;;20.64;65.27;96917.92;609028;233;68649;-68
2023/10/29 03:13:43;;;;;;;;;;;;;;;20.63;64.70;96911.79;609095;233;64684;-68
2023/10/29 03:16:10;;;;;;;;;;;;;;;20.63;65.37;96913.66;609020;233;69268;-68
2023/10/29 03:18:38;;;;;;;;;;;;;;;20.63;65.19;96908.33;609039;233;68364;-68
2023/10/29 03:21:05;;;;;;;;;;;;;;;20.63;65.15;96909.12;609019;233;64574;-68
2023/10/29 03:23:33;;;;;;;;;;;;;;;20.63;65.24;96913.66;609040;233;66399;-68
2023/10/29 03:26:04;;;;;;;;;;;;;;;20.63;65.38;96916.33;609000;233;69747;-69
2023/10/29 03:28:31;;;;;;;;;;;;;;;20.63;65.35;96919.00;609036;233;64925;-69
2023/10/29 03:31:00;;;;;;;;;;;;;;;20.63;64.80;96921.67;609034;233;69208;-68
2023/10/29 03:33:27;;;;;;;;;;;;;;;20.62;65.32;96926.19;609003;233;68683;-69
2023/10/29 03:35:55;;;;;;;;;;;;;;;20.63;65.28;96929.69;609015;233;62361;-69
2023/10/29 03:38:22;;;;;;;;;;;;;;;20.63;64.72;96924.34;609050;233;69057;-69
2023/10/29 03:40:50;;;;;;;;;;;;;;;20.62;63.90;96928.86;609006;233;68652;-69
2023/10/29 03:43:17;;;;;;;;;;;;;;;20.63;65.05;96941.16;609031;233;62423;-69
2023/10/29 03:45:45;;;;;;;;;;;;;;;20.62;64.42;96934.20;609022;233;69425;-69
2023/10/29 03:48:15;;;;;;;;;;;;;;;20.61;64.80;96936.08;609017;233;66337;-69
2023/10/29 03:50:42;;;;;;;;;;;;;;;20.61;65.17;96941.41;609039;233;64619;-69
2023/10/29 03:53:10;;;;;;;;;;;;;;;20.61;65.13;96938.74;609004;233;68883;-69
2023/10/29 03:55:37;;;;;;;;;;;;;;;20.61;65.47;96938.74;609009;233;68488;-70
2023/10/29 03:58:05;;;;;;;;;;;;;;;20.61;65.45;96941.41;609011;233;62438;-69
2023/10/29 04:00:32;;;;;;;;;;;;;;;20.59;65.35;96940.88;608990;233;66446;-69
2023/10/29 04:03:00;;;;;;;;;;;;;;;20.60;65.16;96942.50;603691;233;69992;-69
2023/10/29 04:05:28;;;;;;;;;;;;;;;20.60;65.70;96953.17;609037;233;64619;-69
2023/10/29 04:07:55;;;;;;;;;;;;;;;20.59;65.84;96954.23;609046;233;68646;-69
2023/10/29 04:10:23;;;;;;;;;;;;;;;20.60;65.28;96963.06;609006;233;68581;-69
2023/10/29 04:12:51;;;;;;;;;;;;;;;20.60;64.81;96965.73;609026;233;62496;-69
2023/10/29 04:15:19;;;;;;;;;;;;;;;20.60;65.08;96968.40;608981;233;66449;-69
2023/10/29 04:17:48;;;;;;;;;;;;;;;20.60;65.65;96961.19;609051;233;68879;-69
2023/10/29 04:20:15;;;;;;;;;;;;;;;20.60;65.31;96969.20;608980;233;64599;-69
2023/10/29 04:22:43;;;;;;;;;;;;;;;20.59;65.25;96972.91;608999;233;68730;-69
2023/10/29 04:25:11;;;;;;;;;;;;;;;20.59;65.05;96972.12;609011;233;66673;-69
2023/10/29 04:27:38;;;;;;;;;;;;;;;20.60;65.61;96963.06;609014;233;62580;-69
2023/10/29 04:30:07;;;;;;;;;;;;;;;20.60;65.10;96973.74;609058;233;68630;-69
2023/10/29 04:32:34;;;;;;;;;;;;;;;20.59;65.07;96977.46;609013;233;69113;-69
2023/10/29 04:35:02;;;;;;;;;;;;;;;20.59;65.23;96978.25;609016;233;62523;-69
2023/10/29 04:37:29;;;;;;;;;;;;;;;20.58;64.96;96987.34;609034;233;68801;-69
2023/10/29 04:39:57;;;;;;;;;;;;;;;20.59;64.92;96993.48;608974;233;66848;-69
2023/10/29 04:42:24;;;;;;;;;;;;;;;20.59;65.12;96993.48;609037;233;62705;-69
2023/10/29 04:44:52;;;;;;;;;;;;;;;20.58;65.09;96998.02;608998;233;68610;-69
2023/10/29 04:47:19;;;;;;;;;;;;;;;20.59;65.32;97002.28;609003;233;68492;-69
2023/10/29 04:49:47;;;;;;;;;;;;;;;20.58;64.91;97011.38;609009;233;64540;-69
2023/10/29 04:52:14;;;;;;;;;;;;;;;20.59;65.08;97007.63;609009;233;68573;-70
2023/10/29 04:54:42;;;;;;;;;;;;;;;20.58;65.07;97011.38;609065;233;66435;-69
2023/10/29 04:57:10;;;;;;;;;;;;;;;20.58;65.16;97018.59;609012;233;65535;-69
2023/10/29 04:59:37;;;;;;;;;;;;;;;20.58;63.35;97026.60;609001;233;68425;-69
2023/10/29 05:02:04;;;;;;;;;;;;;;;20.59;64.66;97030.86;608936;233;66470;-69
2023/10/29 05:04:32;;;;;;;;;;;;;;;20.59;64.95;97030.86;608978;233;62359;-69
2023/10/29 05:06:59;;;;;;;;;;;;;;;20.58;64.65;97030.06;609033;233;66718;-69
2023/10/29 05:09:27;;;;;;;;;;;;;;;20.58;64.97;97030.06;609034;233;67451;-69
2023/10/29 05:11:55;;;;;;;;;;;;;;;20.58;65.17;97026.60;609011;233;64580;-69
2023/10/29 05:14:23;;;;;;;;;;;;;;;20.58;65.66;97029.27;609010;230;68626;-69
2023/10/29 05:16:52;;;;;;;;;;;;;;;20.58;65.79;97034.61;608985;233;66511;-69
2023/10/29 05:19:20;;;;;;;;;;;;;;;20.57;65.92;97039.16;609011;233;62476;-69
2023/10/29 05:21:48;;;;;;;;;;;;;;;20.57;66.21;97033.81;609073;230;69741;-69
2023/10/29 05:24:16;;;;;;;;;;;;;;;20.57;65.97;97036.48;609010;233;66460;-69
2023/10/29 05:26:43;;;;;;;;;;;;;;;20.57;65.39;97036.48;609019;233;62659;-69
2023/10/29 05:29:11;;;;;;;;;;;;;;;20.56;65.58;97034.86;609010;233;66554;-69
2023/10/29 05:31:38;;;;;;;;;;;;;;;20.57;65.60;97041.00;609023;233;66436;-69
2023/10/29 05:34:06;;;;;;;;;;;;;;;20.57;65.69;97049.01;609102;233;64726;-69
2023/10/29 05:36:34;;;;;;;;;;;;;;;20.57;65.56;97046.34;609026;233;68839;-69
2023/10/29 05:39:05;;;;;;;;;;;;;;;20.56;65.48;97045.55;609051;233;66443;-69
2023/10/29 05:41:31;;;;;;;;;;;;;;;20.57;65.45;97049.01;609014;233;62467;-69
2023/10/29 05:43:59;;;;;;;;;;;;;;;20.56;65.76;97045.55;609037;233;69640;-69
2023/10/29 05:46:27;;;;;;;;;;;;;;;20.56;65.78;97045.55;609095;233;67341;-69
2023/10/29 05:48:54;;;;;;;;;;;;;;;20.57;65.73;97051.68;609024;233;65755;-69
2023/10/29 05:51:22;;;;;;;;;;;;;;;20.56;65.65;97052.76;609048;233;66489;-69
2023/10/29 05:53:49;;;;;;;;;;;;;;;20.56;65.65;97058.09;608952;233;67725;-69
2023/10/29 05:56:23;;;;;;;;;;;;;;;20.56;65.63;97053.55;609035;233;64571;-69
2023/10/29 05:58:47;;;;;;;;;;;;;;;20.56;65.91;97061.56;608851;233;68641;-69
2023/10/29 06:01:14;;;;;;;;;;;;;;;20.56;65.83;97061.56;609043;232;68550;-69
2023/10/29 06:03:42;;;;;;;;;;;;;;;20.55;65.59;97062.64;609020;233;64591;-69
2023/10/29 06:06:09;;;;;;;;;;;;;;;20.56;65.61;97060.77;609008;233;68612;-69
2023/10/29 06:08:37;;;;;;;;;;;;;;;20.55;65.53;97062.64;608994;233;66602;-69
2023/10/29 06:11:05;;;;;;;;;;;;;;;20.55;65.48;97062.64;609051;233;64551;-69
2023/10/29 06:13:33;;;;;;;;;;;;;;;20.55;65.37;97057.30;609069;233;68294;-69
2023/10/29 06:16:00;;;;;;;;;;;;;;;20.54;65.46;97054.89;609047;233;68687;-69
2023/10/29 06:18:28;;;;;;;;;;;;;;;20.54;66.03;97058.38;608982;233;65070;-69
2023/10/29 06:20:55;;;;;;;;;;;;;;;20.55;65.75;97056.51;609022;233;69091;-69
2023/10/29 06:23:23;;;;;;;;;;;;;;;20.54;64.68;97054.89;608986;233;66454;-69
2023/10/29 06:25:50;;;;;;;;;;;;;;;20.53;63.55;97063.94;609081;233;62674;-69
2023/10/29 06:28:18;;;;;;;;;;;;;;;20.54;64.63;97066.39;609021;233;68633;-69
2023/10/29 06:30:45;;;;;;;;;;;;;;;20.56;65.31;97066.11;607042;229;68595;-69
2023/10/29 06:33:13;;;;;;;;;;;;;;;20.56;66.06;97071.45;602382;229;62598;-69
2023/10/29 06:35:41;;;;;;;;;;;;;;;20.56;66.03;97079.45;602271;235;67379;-69
2023/10/29 06:38:08;;;;;;;;;;;;;;;20.57;65.87;97087.21;602179;235;68588;-68
2023/10/29 06:40:36;;;;;;;;;;;;;;;20.57;65.91;97091.73;602279;235;62455;-69
2023/10/29 06:43:03;;;;;;;;;;;;;;;20.56;65.97;97090.93;602251;235;66554;-69
2023/10/29 06:45:31;;;;;;;;;;;;;;;20.57;65.92;97087.21;602269;235;68566;-70
2023/10/29 06:47:58;;;;;;;;;;;;;;;20.57;65.86;97097.06;602255;233;62628;-69
2023/10/29 06:50:26;;;;;;;;;;;;;;;20.57;66.21;97084.55;602322;235;66374;-69
2023/10/29 06:52:53;;;;;;;;;;;;;;;20.58;65.84;97088.02;602305;235;66702;-69
2023/10/29 06:55:23;;;;;;;;;;;;;;;20.58;66.27;97098.69;602282;235;63453;-69
2023/10/29 06:57:50;;;;;;;;;;;;;;;20.58;66.22;97102.16;602285;235;67420;-69
2023/10/29 07:00:17;;;;;;;;;;;;;;;20.57;65.58;97105.91;602291;235;65941;-69
2023/10/29 07:02:46;;;;;;;;;;;;;;;20.58;65.36;97110.16;603966;235;64574;-68
2023/10/29 07:05:14;;;;;;;;;;;;;;;20.59;65.65;97103.75;604209;235;67123;-68
2023/10/29 07:07:41;;;;;;;;;;;;;;;20.58;65.99;97104.83;604146;235;66518;-68
2023/10/29 07:10:09;;;;;;;;;;;;;;;20.58;65.76;97110.16;604174;235;62480;-68
2023/10/29 07:12:36;;;;;;;;;;;;;;;20.58;65.80;97112.04;604179;235;66128;-69
2023/10/29 07:15:05;;;;;;;;;;;;;;;20.59;65.85;97118.97;604128;235;68353;-69
2023/10/29 07:17:33;;;;;;;;;;;;;;;20.58;65.81;97120.84;604252;235;62401;-69
2023/10/29 07:20:00;;;;;;;;;;;;;;;20.59;65.67;97119.77;604200;235;66096;-69
2023/10/29 07:22:29;;;;;;;;;;;;;;;20.59;65.80;97125.11;604148;235;68543;-69
2023/10/29 07:24:57;;;;;;;;;;;;;;;20.59;65.71;97126.98;604173;235;64579;-69
2023/10/29 07:27:24;;;;;;;;;;;;;;;20.60;66.05;97125.94;604164;235;69427;-69
2023/10/29 07:29:52;;;;;;;;;;;;;;;20.59;65.63;97126.98;604157;235;69417;-69
2023/10/29 07:32:19;;;;;;;;;;;;;;;20.59;65.79;97119.77;604135;235;62698;-69
2023/10/29 07:34:47;;;;;;;;;;;;;;;20.60;65.94;97115.25;604174;235;66729;-69
2023/10/29 07:37:14;;;;;;;;;;;;;;;20.60;65.97;97117.92;604070;235;66609;-69
2023/10/29 07:39:42;;;;;;;;;;;;;;;20.59;65.93;97127.78;604217;235;63421;-69
2023/10/29 07:42:09;;;;;;;;;;;;;;;20.59;66.16;97122.44;604139;235;68828;-69
2023/10/29 07:44:37;;;;;;;;;;;;;;;20.60;66.03;97121.39;604133;235;68595;-69
2023/10/29 07:47:08;;;;;;;;;;;;;;;20.61;65.73;97125.66;604157;235;64421;-69
2023/10/29 07:49:34;;;;;;;;;;;;;;;20.60;65.77;97110.71;604102;235;68702;-69
2023/10/29 07:52:01;;;;;;;;;;;;;;;20.61;65.96;97109.63;604161;235;68544;-69
2023/10/29 07:54:29;;;;;;;;;;;;;;;20.59;65.94;97111.76;604196;235;64556;-69
2023/10/29 07:56:56;;;;;;;;;;;;;;;20.61;66.07;97112.30;604109;235;68602;-69
2023/10/29 07:59:24;;;;;;;;;;;;;;;20.60;66.18;97118.72;604154;235;69390;-69
2023/10/29 08:01:51;;;;;;;;;;;;;;;20.60;66.13;97124.06;604102;235;64641;-69
2023/10/29 08:04:19;;;;;;;;;;;;;;;20.61;66.34;97125.66;604147;235;68608;-69
2023/10/29 08:06:46;;;;;;;;;;;;;;;20.62;66.30;97126.45;604167;235;68684;-70
2023/10/29 08:09:14;;;;;;;;;;;;;;;20.60;66.13;97123.27;604148;235;62464;-69
2023/10/29 08:11:42;;;;;;;;;;;;;;;20.61;66.43;97120.31;604124;235;68575;-69
2023/10/29 08:14:09;;;;;;;;;;;;;;;20.61;66.33;97122.98;604179;235;66207;-69
2023/10/29 08:16:38;;;;;;;;;;;;;;;20.60;66.18;97109.91;604137;235;64698;-69
2023/10/29 08:19:06;;;;;;;;;;;;;;;20.61;66.24;97117.64;604203;235;66491;-69
2023/10/29 08:21:33;;;;;;;;;;;;;;;20.60;65.92;97113.37;604122;235;68977;-69
2023/10/29 08:24:01;;;;;;;;;;;;;;;20.62;66.08;97115.77;604107;235;64626;-69
2023/10/29 08:26:29;;;;;;;;;;;;;;;20.61;66.25;97120.31;604140;235;68883;-69
2023/10/29 08:28:57;;;;;;;;;;;;;;;20.63;66.29;97124.60;604110;235;66471;-69
2023/10/29 08:31:24;;;;;;;;;;;;;;;20.62;66.42;97121.11;604228;235;64623;-69
2023/10/29 08:33:52;;;;;;;;;;;;;;;20.61;66.33;97122.98;604164;235;68659;-69
2023/10/29 08:36:19;;;;;;;;;;;;;;;20.60;66.25;97118.72;604111;235;66635;-69
2023/10/29 08:38:47;;;;;;;;;;;;;;;20.61;65.95;97120.31;604174;235;62542;-69
2023/10/29 08:41:17;;;;;;;;;;;;;;;20.60;66.27;97124.06;604162;235;66310;-69
2023/10/29 08:43:45;;;;;;;;;;;;;;;20.61;65.93;97128.32;604132;235;66795;-69
2023/10/29 08:46:12;;;;;;;;;;;;;;;20.61;65.98;97128.32;604186;235;63406;-69
2023/10/29 08:48:40;;;;;;;;;;;;;;;20.62;66.10;97123.78;604143;235;68802;-69
2023/10/29 08:51:08;;;;;;;;;;;;;;;20.63;65.99;97116.59;604107;235;66475;-69
2023/10/29 08:53:36;;;;;;;;;;;;;;;20.62;65.81;97115.77;604164;235;65620;-69
2023/10/29 08:56:03;;;;;;;;;;;;;;;20.62;66.26;97115.77;604157;235;68677;-69
2023/10/29 08:58:31;;;;;;;;;;;;;;;20.63;66.07;97113.92;604220;235;66376;-69
2023/10/29 09:00:59;;;;;;;;;;;;;;;20.61;65.83;97106.96;603768;235;64597;-69
2023/10/29 09:03:27;;;;;;;;;;;;;;;20.61;65.79;97120.31;602277;235;68658;-69
2023/10/29 09:05:56;;;;;;;;;;;;;;;20.61;65.81;97109.63;602291;235;68570;-69
2023/10/29 09:08:23;;;;;;;;;;;;;;;20.62;65.69;97118.44;602145;235;64549;-69
2023/10/29 09:10:51;;;;;;;;;;;;;;;20.61;65.94;97114.97;602303;235;68603;-69
2023/10/29 09:13:21;;;;;;;;;;;;;;;20.63;66.01;97127.27;602288;232;67385;-69
2023/10/29 09:15:49;;;;;;;;;;;;;;;20.61;66.10;97120.31;602224;234;62283;-69
2023/10/29 09:18:16;;;;;;;;;;;;;;;20.62;66.19;97126.45;602239;235;69478;-67
2023/10/29 09:20:50;;;;;;;;;;;;;;;20.63;66.04;97121.94;602287;235;68553;-69
2023/10/29 09:23:14;;;;;;;;;;;;;;;20.63;66.06;97117.39;602142;234;62692;-69
2023/10/29 09:25:45;;;;;;;;;;;;;;;20.63;66.04;97111.25;602271;235;66572;-69
2023/10/29 09:28:14;;;;;;;;;;;;;;;20.60;66.00;97113.37;602306;235;66286;-69
2023/10/29 09:30:41;;;;;;;;;;;;;;;20.63;66.09;97116.59;602263;235;64668;-69
2023/10/29 09:33:11;;;;;;;;;;;;;;;20.63;66.07;97125.41;602274;235;69528;-69
2023/10/29 09:35:39;;;;;;;;;;;;;;;20.63;66.10;97111.25;602269;235;68967;-69
2023/10/29 09:38:06;;;;;;;;;;;;;;;20.63;66.21;97111.25;602337;235;62612;-69
2023/10/29 09:40:34;;;;;;;;;;;;;;;20.62;66.20;97107.75;602281;233;66487;-67
2023/10/29 09:43:03;;;;;;;;;;;;;;;20.61;66.25;97098.95;602277;235;66369;-67
2023/10/29 09:45:32;;;;;;;;;;;;;;;20.60;66.22;97097.36;602079;235;63464;-69
2023/10/29 09:48:00;;;;;;;;;;;;;;;20.62;66.56;97105.09;602308;235;66473;-69
2023/10/29 09:50:28;;;;;;;;;;;;;;;20.61;66.37;97101.62;602329;235;66439;-69
2023/10/29 09:52:57;;;;;;;;;;;;;;;20.61;66.30;97101.62;602298;235;64443;-69
2023/10/29 09:55:25;;;;;;;;;;;;;;;20.61;65.90;97101.62;602305;235;68281;-69
2023/10/29 09:57:53;;;;;;;;;;;;;;;20.61;66.26;97103.49;602249;232;68536;-69
2023/10/29 10:00:21;;;;;;;;;;;;;;;20.62;66.05;97097.08;602230;235;64480;-69
2023/10/29 10:02:52;;;;;;;;;;;;;;;20.63;66.39;97100.57;602301;235;66700;-69
2023/10/29 10:05:27;;;;;;;;;;;;;;;20.63;66.37;97100.57;602284;235;66532;-68
2023/10/29 10:07:55;;;;;;;;;;;;;;;20.62;66.27;97094.41;601978;235;64823;-68
2023/10/29 10:10:24;;;;;;;;;;;;;;;20.61;66.31;97088.27;602273;235;69562;-68
2023/10/29 10:12:52;;;;;;;;;;;;;;;20.62;66.39;97097.08;601808;235;66421;-68
2023/10/29 10:15:20;;;;;;;;;;;;;;;20.61;66.42;97088.27;602267;235;64768;-68
2023/10/29 10:17:51;;;;;;;;;;;;;;;20.61;66.38;97082.92;602342;235;68646;-68
2023/10/29 10:20:22;;;;;;;;;;;;;;;20.62;66.61;97081.05;602280;235;68515;-69
2023/10/29 10:23:01;;;;;;;;;;;;;;;20.62;66.45;97078.38;602280;235;64398;-67
2023/10/29 10:25:29;;;;;;;;;;;;;;;20.63;66.44;97073.87;602066;235;68804;-68
2023/10/29 10:27:58;;;;;;;;;;;;;;;20.61;66.30;97072.25;602252;235;66463;-68
2023/10/29 10:30:26;;;;;;;;;;;;;;;20.60;66.39;97065.31;602292;235;62811;-67
2023/10/29 10:32:55;;;;;;;;;;;;;;;20.61;66.84;97072.25;602330;235;68920;-68
2023/10/29 10:35:23;;;;;;;;;;;;;;;20.60;66.25;97070.66;602198;233;66725;-69
2023/10/29 10:37:54;;;;;;;;;;;;;;;20.60;66.56;97067.98;602293;235;63295;-69
2023/10/29 10:40:28;;;;;;;;;;;;;;;20.62;66.25;97073.05;602274;235;67398;-68
2023/10/29 10:42:55;;;;;;;;;;;;;;;20.60;66.10;97070.66;602094;234;66097;-68
2023/10/29 10:45:27;;;;;;;;;;;;;;;20.61;65.83;97072.25;602348;235;62392;-68
2023/10/29 10:48:01;;;;;;;;;;;;;;;20.60;65.87;97073.33;602285;235;66742;-69
2023/10/29 10:50:26;;;;;;;;;;;;;;;20.60;66.09;97067.98;602124;234;68859;-69
2023/10/29 10:52:54;;;;;;;;;;;;;;;20.62;66.12;97067.70;602288;235;64714;-68
2023/10/29 10:55:22;;;;;;;;;;;;;;;20.61;65.96;97064.23;602251;235;68984;-69
2023/10/29 10:57:50;;;;;;;;;;;;;;;20.61;66.32;97060.77;602271;235;68694;-69
2023/10/29 11:00:18;;;;;;;;;;;;;;;20.61;66.14;97064.23;602280;235;64611;-69
2023/10/29 11:02:46;;;;;;;;;;;;;;;20.61;66.20;97061.56;603969;235;66648;-68
2023/10/29 11:05:18;;;;;;;;;;;;;;;20.61;66.11;97053.56;604181;235;68587;-68
2023/10/29 11:07:46;;;;;;;;;;;;;;;20.61;66.12;97061.56;604203;235;64725;-69
2023/10/29 11:10:14;;;;;;;;;;;;;;;20.61;66.25;97050.89;604179;235;68299;-69
2023/10/29 11:12:42;;;;;;;;;;;;;;;20.60;66.06;97051.97;604212;235;66119;-69
2023/10/29 11:15:19;;;;;;;;;;;;;;;20.60;65.98;97046.63;604147;235;64535;-68
2023/10/29 11:17:50;;;;;;;;;;;;;;;20.60;65.97;97038.62;604176;235;68776;-68
2023/10/29 11:20:36;;;;;;;;;;;;;;;20.61;66.04;97045.55;604169;235;68353;-67
2023/10/29 11:23:07;;;;;;;;;;;;;;;20.61;65.99;97042.88;604153;235;64696;-68
2023/10/29 11:25:36;;;;;;;;;;;;;;;20.60;66.29;97035.95;604164;235;68509;-68
2023/10/29 11:28:03;;;;;;;;;;;;;;;20.60;66.22;97035.95;604190;235;68472;-67
2023/10/29 11:30:31;;;;;;;;;;;;;;;20.61;66.26;97037.53;604145;235;64732;-67
2023/10/29 11:33:15;;;;;;;;;;;;;;;20.59;66.16;97037.00;605220;232;68682;-68
2023/10/29 11:35:39;;;;;;;;;;;;;;;20.60;66.38;97035.95;609956;232;67338;-68
2023/10/29 11:38:24;;;;;;;;;;;;;;;20.60;66.18;97038.62;610890;232;65732;-68
2023/10/29 11:40:53;;;;;;;;;;;;;;;20.60;66.23;97033.28;610922;232;68706;-69
2023/10/29 11:43:22;;;;;;;;;;;;;;;20.60;66.45;97022.59;611002;230;66449;-68
2023/10/29 11:45:55;;;;;;;;;;;;;;;20.60;66.29;97022.59;610923;232;62656;-69
2023/10/29 11:48:22;;;;;;;;;;;;;;;20.60;66.29;97027.94;610945;232;68760;-68
2023/10/29 11:51:08;;;;;;;;;;;;;;;20.60;66.33;97022.59;610928;232;66320;-69
2023/10/29 11:53:37;;;;;;;;;;;;;;;20.60;66.42;97021.80;610964;232;62682;-68
2023/10/29 11:56:06;;;;;;;;;;;;;;;20.61;66.48;97018.84;610932;232;68815;-69
2023/10/29 11:58:33;;;;;;;;;;;;;;;20.60;66.32;97021.80;610978;232;68456;-68
2023/10/29 12:01:01;;;;;;;;;;;;;;;20.59;66.01;97031.66;610516;232;64754;-68
2023/10/29 12:03:32;;;;;;;;;;;;;;;20.60;66.37;97035.95;609010;233;66474;-68
2023/10/29 12:05:59;;;;;;;;;;;;;;;20.59;66.10;97025.52;608995;233;68879;-68
2023/10/29 12:08:29;;;;;;;;;;;;;;;20.60;66.20;97021.80;609015;230;64637;-68
2023/10/29 12:10:56;;;;;;;;;;;;;;;20.60;66.10;97021.80;608996;232;66346;-68
2023/10/29 12:13:24;;;;;;;;;;;;;;;20.60;66.21;97019.92;609068;233;69481;-69
2023/10/29 12:15:57;;;;;;;;;;;;;;;20.59;66.07;97018.30;609036;233;64902;-68
2023/10/29 12:18:26;;;;;;;;;;;;;;;20.60;66.13;97017.25;609010;233;68562;-68
2023/10/29 12:21:08;;;;;;;;;;;;;;;20.60;66.22;97017.25;609028;233;66466;-67
2023/10/29 12:23:33;;;;;;;;;;;;;;;20.61;66.22;97029.53;608872;233;64559;-69
2023/10/29 12:26:01;;;;;;;;;;;;;;;20.61;66.51;97029.53;609040;233;68315;-68
2023/10/29 12:28:28;;;;;;;;;;;;;;;20.60;66.63;97027.94;609005;233;68715;-68
2023/10/29 12:30:57;;;;;;;;;;;;;;;20.60;66.33;97021.80;608999;233;64559;-68
2023/10/29 12:33:26;;;;;;;;;;;;;;;20.60;66.63;97022.59;609018;233;68847;-68
2023/10/29 12:35:56;;;;;;;;;;;;;;;20.60;66.68;97021.80;609012;233;68709;-68
2023/10/29 12:38:24;;;;;;;;;;;;;;;20.61;66.45;97024.19;609093;233;64921;-68
2023/10/29 12:41:19;;;;;;;;;;;;;;;20.60;66.59;97017.25;609062;233;66906;-68
2023/10/29 12:43:38;;;;;;;;;;;;;;;20.60;66.53;97019.92;608644;233;68815;-70
2023/10/29 12:46:07;;;;;;;;;;;;;;;20.61;66.71;97024.19;609040;233;62512;-68
2023/10/29 12:48:36;;;;;;;;;;;;;;;20.60;66.36;97019.13;608968;232;67177;-67
2023/10/29 12:51:04;;;;;;;;;;;;;;;20.59;65.74;97015.64;609015;233;68863;-67
2023/10/29 12:53:32;;;;;;;;;;;;;;;20.59;65.61;97020.98;609102;233;64431;-67